Time;durP1;ratioP1;P1;durP2;ratioP2;P2;SDS_P1;SDS_P2;PMS_P1;PMS_P2;Temp;Humidity;BMP_temperature;BMP_pressure;BME280_temperature;BME280_humidity;BME280_pressure;Samples;Min_cycle;Max_cycle;Signal;HPM_P1;HPM_P2
2022/04/14 00:02:25;;;;;;;50.78;36.83;;;;;;;;;;5026895;28;20658;-60
2022/04/14 00:04:51;;;;;;;53.03;37.42;;;;;;;;;;5024543;28;20112;-60
2022/04/14 00:07:17;;;;;;;52.80;37.40;;;;;;;;;;5040263;28;20532;-60
2022/04/14 00:09:43;;;;;;;47.83;33.95;;;;;;;;;;5024218;28;20439;-61
2022/04/14 00:12:09;;;;;;;50.95;36.75;;;;;;;;;;5027334;28;20716;-60
2022/04/14 00:14:35;;;;;;;53.10;36.28;;;;;;;;;;5026414;28;20049;-60
2022/04/14 00:17:00;;;;;;;53.63;36.88;;;;;;;;;;5028273;28;20440;-60
2022/04/14 00:19:26;;;;;;;46.10;34.38;;;;;;;;;;5027807;28;20370;-60
2022/04/14 00:21:53;;;;;;;49.90;35.83;;;;;;;;;;5031939;28;20030;-60
2022/04/14 00:24:18;;;;;;;50.00;34.92;;;;;;;;;;5032385;28;20025;-60
2022/04/14 00:26:44;;;;;;;44.67;33.45;;;;;;;;;;5028771;28;20749;-60
2022/04/14 00:29:14;;;;;;;50.25;35.97;;;;;;;;;;5025473;28;20105;-60
2022/04/14 00:31:40;;;;;;;47.85;35.17;;;;;;;;;;5023191;28;20492;-60
2022/04/14 00:34:06;;;;;;;46.22;34.13;;;;;;;;;;5026577;28;20021;-60
2022/04/14 00:36:35;;;;;;;50.47;37.17;;;;;;;;;;5029576;28;20029;-60
2022/04/14 00:39:01;;;;;;;54.75;38.08;;;;;;;;;;5024429;28;20052;-60
2022/04/14 00:41:27;;;;;;;54.33;38.25;;;;;;;;;;5027409;28;20052;-59
2022/04/14 00:43:54;;;;;;;54.55;37.40;;;;;;;;;;5025538;28;20053;-60
2022/04/14 00:46:20;;;;;;;53.35;37.88;;;;;;;;;;5021244;28;20422;-59
2022/04/14 00:48:47;;;;;;;51.20;36.42;;;;;;;;;;5027287;28;20057;-60
2022/04/14 00:51:13;;;;;;;52.42;38.70;;;;;;;;;;5020781;28;20104;-60
2022/04/14 00:53:39;;;;;;;53.08;38.83;;;;;;;;;;5024352;28;20736;-59
2022/04/14 00:56:06;;;;;;;51.35;37.33;;;;;;;;;;5023560;28;20029;-59
2022/04/14 00:58:32;;;;;;;51.78;36.40;;;;;;;;;;5026336;28;20021;-60
2022/04/14 01:00:59;;;;;;;50.95;36.63;;;;;;;;;;5023725;28;20075;-59
2022/04/14 01:03:25;;;;;;;46.72;35.42;;;;;;;;;;5023164;28;20718;-59
2022/04/14 01:05:53;;;;;;;48.65;36.38;;;;;;;;;;5024908;28;20022;-59
2022/04/14 01:08:19;;;;;;;49.65;36.08;;;;;;;;;;5027344;28;20461;-58
2022/04/14 01:10:47;;;;;;;52.63;37.55;;;;;;;;;;5028432;28;20417;-59
2022/04/14 01:13:14;;;;;;;49.05;35.80;;;;;;;;;;5023198;28;20474;-59
2022/04/14 01:15:40;;;;;;;50.85;36.63;;;;;;;;;;5026450;28;20417;-58
2022/04/14 01:18:06;;;;;;;53.22;38.42;;;;;;;;;;5027215;28;20404;-59
2022/04/14 01:20:33;;;;;;;56.92;39.97;;;;;;;;;;5025778;28;20546;-59
2022/04/14 01:23:02;;;;;;;54.17;38.13;;;;;;;;;;5030103;28;20027;-59
2022/04/14 01:25:28;;;;;;;52.42;38.10;;;;;;;;;;5024397;28;20081;-59
2022/04/14 01:27:55;;;;;;;49.00;35.60;;;;;;;;;;5023799;28;20065;-59
2022/04/14 01:30:22;;;;;;;53.42;38.20;;;;;;;;;;5024883;28;20104;-59
2022/04/14 01:32:48;;;;;;;53.25;37.85;;;;;;;;;;5022879;28;20080;-59
2022/04/14 01:35:14;;;;;;;52.25;36.25;;;;;;;;;;5023889;28;20100;-59
2022/04/14 01:37:40;;;;;;;55.58;39.90;;;;;;;;;;5027735;28;20021;-58
2022/04/14 01:40:07;;;;;;;51.50;38.63;;;;;;;;;;5029144;28;20033;-59
2022/04/14 01:42:33;;;;;;;52.65;36.88;;;;;;;;;;5027169;28;20028;-59
2022/04/14 01:44:59;;;;;;;52.22;37.35;;;;;;;;;;5029108;28;20022;-59
2022/04/14 01:47:25;;;;;;;53.47;38.08;;;;;;;;;;5023398;28;20029;-58
2022/04/14 01:49:52;;;;;;;55.45;38.78;;;;;;;;;;5026584;28;20020;-59
2022/04/14 01:52:18;;;;;;;53.88;38.63;;;;;;;;;;5025234;28;20029;-58
2022/04/14 01:54:44;;;;;;;52.30;35.78;;;;;;;;;;5023710;28;20032;-59
2022/04/14 01:57:10;;;;;;;48.20;36.45;;;;;;;;;;5020813;28;20021;-59
2022/04/14 01:59:36;;;;;;;53.13;36.40;;;;;;;;;;5030508;28;20033;-59
2022/04/14 02:02:03;;;;;;;52.15;36.50;;;;;;;;;;5021268;28;20398;-58
2022/04/14 02:04:29;;;;;;;52.58;37.72;;;;;;;;;;5026462;28;20025;-59
2022/04/14 02:06:55;;;;;;;50.08;36.13;;;;;;;;;;5023091;28;20025;-59
2022/04/14 02:09:21;;;;;;;53.50;38.40;;;;;;;;;;5027404;28;20470;-57
2022/04/14 02:11:47;;;;;;;51.13;36.47;;;;;;;;;;5024711;28;20025;-58
2022/04/14 02:14:13;;;;;;;50.17;36.22;;;;;;;;;;5025803;28;20017;-59
2022/04/14 02:16:39;;;;;;;56.17;38.10;;;;;;;;;;5025733;28;20033;-59
2022/04/14 02:19:05;;;;;;;53.17;37.53;;;;;;;;;;5035515;28;20108;-59
2022/04/14 02:21:31;;;;;;;57.63;39.67;;;;;;;;;;5026480;28;20439;-59
2022/04/14 02:23:57;;;;;;;54.15;38.00;;;;;;;;;;5033293;28;20096;-58
2022/04/14 02:26:23;;;;;;;56.95;39.88;;;;;;;;;;5026139;28;20035;-59
2022/04/14 02:28:49;;;;;;;52.10;36.53;;;;;;;;;;5034651;28;20021;-59
2022/04/14 02:31:15;;;;;;;52.78;36.70;;;;;;;;;;5030202;28;20028;-58
2022/04/14 02:33:41;;;;;;;51.45;36.58;;;;;;;;;;5033819;28;20073;-58
2022/04/14 02:36:07;;;;;;;51.25;36.10;;;;;;;;;;5033384;28;20017;-57
2022/04/14 02:38:33;;;;;;;49.90;36.47;;;;;;;;;;5023128;28;20566;-59
2022/04/14 02:40:59;;;;;;;55.35;38.75;;;;;;;;;;5028062;28;20033;-58
2022/04/14 02:43:25;;;;;;;53.83;37.75;;;;;;;;;;5030730;28;20040;-58
2022/04/14 02:45:51;;;;;;;51.83;37.67;;;;;;;;;;5028903;28;20029;-57
2022/04/14 02:48:17;;;;;;;49.53;36.03;;;;;;;;;;5026531;28;20141;-57
2022/04/14 02:50:43;;;;;;;54.58;38.78;;;;;;;;;;5034418;28;20040;-59
2022/04/14 02:53:10;;;;;;;53.03;36.28;;;;;;;;;;5028192;28;20681;-59
2022/04/14 02:55:36;;;;;;;54.25;39.03;;;;;;;;;;5023850;28;20030;-58
2022/04/14 02:58:02;;;;;;;51.90;36.17;;;;;;;;;;5028796;28;20074;-59
2022/04/14 03:00:28;;;;;;;61.50;40.83;;;;;;;;;;5024411;28;20477;-58
2022/04/14 03:02:54;;;;;;;54.42;37.70;;;;;;;;;;5022347;28;20052;-58
2022/04/14 03:05:20;;;;;;;54.90;37.63;;;;;;;;;;5024559;28;20022;-60
2022/04/14 03:07:46;;;;;;;57.30;40.40;;;;;;;;;;5026905;28;20361;-59
2022/04/14 03:10:12;;;;;;;59.17;40.30;;;;;;;;;;5031022;28;20013;-59
2022/04/14 03:12:46;;;;;;;57.58;38.45;;;;;;;;;;5026077;28;20028;-59
2022/04/14 03:15:12;;;;;;;58.70;38.60;;;;;;;;;;5023552;28;20025;-58
2022/04/14 03:17:39;;;;;;;54.63;37.33;;;;;;;;;;5032504;28;20033;-58
2022/04/14 03:20:05;;;;;;;57.70;39.80;;;;;;;;;;5024601;28;20032;-58
2022/04/14 03:22:34;;;;;;;58.25;39.53;;;;;;;;;;5023596;28;20457;-58
2022/04/14 03:25:10;;;;;;;57.85;38.85;;;;;;;;;;5024238;28;20025;-58
2022/04/14 03:27:37;;;;;;;58.05;38.47;;;;;;;;;;5036446;28;20496;-59
2022/04/14 03:30:03;;;;;;;61.83;40.58;;;;;;;;;;5028585;28;20434;-59
2022/04/14 03:32:29;;;;;;;58.83;39.00;;;;;;;;;;5024320;28;20361;-58
2022/04/14 03:34:55;;;;;;;55.17;38.58;;;;;;;;;;5027741;28;20036;-58
2022/04/14 03:37:21;;;;;;;60.38;40.75;;;;;;;;;;5031591;28;20028;-58
2022/04/14 03:39:48;;;;;;;60.70;41.72;;;;;;;;;;5027388;28;20040;-58
2022/04/14 03:42:14;;;;;;;67.63;43.30;;;;;;;;;;5031876;28;20036;-58
2022/04/14 03:44:40;;;;;;;68.93;43.33;;;;;;;;;;5029567;28;20029;-59
2022/04/14 03:47:06;;;;;;;68.80;45.30;;;;;;;;;;5023376;28;20036;-58
2022/04/14 03:49:32;;;;;;;74.15;45.95;;;;;;;;;;5026556;28;20108;-58
2022/04/14 03:51:58;;;;;;;71.13;46.28;;;;;;;;;;5029722;28;20141;-58
2022/04/14 03:54:24;;;;;;;68.28;43.17;;;;;;;;;;5032383;28;20021;-58
2022/04/14 03:56:50;;;;;;;68.95;43.28;;;;;;;;;;5026406;28;20039;-59
2022/04/14 03:59:16;;;;;;;75.13;45.38;;;;;;;;;;5023827;28;20030;-59
2022/04/14 04:01:42;;;;;;;82.20;50.13;;;;;;;;;;5028226;28;20249;-59
2022/04/14 04:04:08;;;;;;;76.63;47.40;;;;;;;;;;5023213;28;20041;-59
2022/04/14 04:06:34;;;;;;;78.60;48.15;;;;;;;;;;5028352;28;20026;-58
2022/04/14 04:09:00;;;;;;;74.90;47.35;;;;;;;;;;5026361;28;20032;-58
2022/04/14 04:11:26;;;;;;;78.90;48.08;;;;;;;;;;5028824;28;20017;-59
2022/04/14 04:13:52;;;;;;;85.93;51.55;;;;;;;;;;5027628;28;20137;-59
2022/04/14 04:16:18;;;;;;;87.57;50.85;;;;;;;;;;5026887;28;20033;-58
2022/04/14 04:18:44;;;;;;;81.07;48.85;;;;;;;;;;5024996;28;20028;-59
2022/04/14 04:21:10;;;;;;;86.80;50.97;;;;;;;;;;5031979;28;20350;-59
2022/04/14 04:23:36;;;;;;;83.07;51.17;;;;;;;;;;5025113;28;20037;-58
2022/04/14 04:26:02;;;;;;;92.38;54.45;;;;;;;;;;5029911;28;20033;-58
2022/04/14 04:28:30;;;;;;;99.40;54.97;;;;;;;;;;5024304;28;20716;-59
2022/04/14 04:30:56;;;;;;;102.63;56.47;;;;;;;;;;5035524;28;20029;-58
2022/04/14 04:33:22;;;;;;;101.85;56.22;;;;;;;;;;5029081;28;20025;-59
2022/04/14 04:35:50;;;;;;;92.35;54.15;;;;;;;;;;5028699;28;20496;-58
2022/04/14 04:38:16;;;;;;;111.57;61.15;;;;;;;;;;5023308;28;20030;-58
2022/04/14 04:40:42;;;;;;;110.80;60.67;;;;;;;;;;5023930;28;20607;-59
2022/04/14 04:43:14;;;;;;;116.40;61.40;;;;;;;;;;5024294;28;20033;-59
2022/04/14 04:45:40;;;;;;;115.03;62.53;;;;;;;;;;5031017;28;20029;-59
2022/04/14 04:48:06;;;;;;;120.88;62.90;;;;;;;;;;5023345;28;20096;-59
2022/04/14 04:50:32;;;;;;;112.32;60.22;;;;;;;;;;5027593;28;20025;-58
2022/04/14 04:52:58;;;;;;;114.50;61.25;;;;;;;;;;5025115;28;20500;-58
2022/04/14 04:55:24;;;;;;;119.55;61.25;;;;;;;;;;5030097;28;20049;-59
2022/04/14 04:57:50;;;;;;;120.80;62.22;;;;;;;;;;5021352;28;20392;-59
2022/04/14 05:00:16;;;;;;;117.20;61.70;;;;;;;;;;5028114;28;20040;-59
2022/04/14 05:02:42;;;;;;;117.22;62.53;;;;;;;;;;5027212;28;20029;-58
2022/04/14 05:05:08;;;;;;;108.75;58.25;;;;;;;;;;5024522;28;20417;-58
2022/04/14 05:07:34;;;;;;;118.50;62.00;;;;;;;;;;5023766;28;20036;-57
2022/04/14 05:10:00;;;;;;;103.40;57.22;;;;;;;;;;5029386;28;20029;-59
2022/04/14 05:12:29;;;;;;;98.25;56.33;;;;;;;;;;5027051;28;20477;-59
2022/04/14 05:14:55;;;;;;;103.30;57.08;;;;;;;;;;5026046;28;20024;-59
2022/04/14 05:17:20;;;;;;;97.05;56.63;;;;;;;;;;5020900;28;20029;-58
2022/04/14 05:19:46;;;;;;;101.70;55.95;;;;;;;;;;5023000;28;20055;-59
2022/04/14 05:22:12;;;;;;;94.13;52.80;;;;;;;;;;5024199;28;20029;-59
2022/04/14 05:24:38;;;;;;;94.38;54.25;;;;;;;;;;5028078;28;20033;-59
2022/04/14 05:27:05;;;;;;;93.30;54.92;;;;;;;;;;5022596;28;20033;-59
2022/04/14 05:29:31;;;;;;;96.85;55.25;;;;;;;;;;5026863;28;20095;-59
2022/04/14 05:31:57;;;;;;;94.85;54.88;;;;;;;;;;5025854;28;20380;-59
2022/04/14 05:34:23;;;;;;;93.82;54.28;;;;;;;;;;5019512;28;20082;-59
2022/04/14 05:36:49;;;;;;;92.57;54.88;;;;;;;;;;5027353;28;20029;-59
2022/04/14 05:39:15;;;;;;;89.72;53.10;;;;;;;;;;5026224;28;20021;-59
2022/04/14 05:41:41;;;;;;;88.57;51.60;;;;;;;;;;5024560;28;20025;-59
2022/04/14 05:44:08;;;;;;;88.43;51.92;;;;;;;;;;5022494;28;20034;-59
2022/04/14 05:46:34;;;;;;;92.13;52.92;;;;;;;;;;5025440;28;20036;-59
2022/04/14 05:49:00;;;;;;;94.18;53.42;;;;;;;;;;5023817;28;20076;-59
2022/04/14 05:51:25;;;;;;;84.40;51.08;;;;;;;;;;5024331;28;20519;-58
2022/04/14 05:53:53;;;;;;;90.47;53.13;;;;;;;;;;5026836;28;20018;-59
2022/04/14 05:56:19;;;;;;;85.13;51.72;;;;;;;;;;5022905;28;20439;-59
2022/04/14 05:58:45;;;;;;;85.00;50.75;;;;;;;;;;5025289;28;20024;-59
2022/04/14 06:01:12;;;;;;;91.60;53.40;;;;;;;;;;5039153;28;20030;-59
2022/04/14 06:03:38;;;;;;;100.20;54.65;;;;;;;;;;5020552;28;20009;-59
2022/04/14 06:06:05;;;;;;;90.97;52.35;;;;;;;;;;5023528;28;20022;-59
2022/04/14 06:08:31;;;;;;;101.07;54.95;;;;;;;;;;5024056;28;20062;-59
2022/04/14 06:10:57;;;;;;;85.63;50.00;;;;;;;;;;5019520;28;20017;-59
2022/04/14 06:13:23;;;;;;;92.30;53.42;;;;;;;;;;5021229;28;20025;-59
2022/04/14 06:15:49;;;;;;;88.00;49.92;;;;;;;;;;5019933;28;20373;-59
2022/04/14 06:18:15;;;;;;;94.78;55.35;;;;;;;;;;5024569;28;20025;-59
2022/04/14 06:20:41;;;;;;;85.05;51.05;;;;;;;;;;5024707;28;20122;-59
2022/04/14 06:23:08;;;;;;;93.38;54.53;;;;;;;;;;5025868;28;20232;-59
2022/04/14 06:25:34;;;;;;;85.07;51.15;;;;;;;;;;5029686;28;20029;-59
2022/04/14 06:28:01;;;;;;;88.32;52.35;;;;;;;;;;5027355;28;20030;-58
2022/04/14 06:30:27;;;;;;;86.57;49.83;;;;;;;;;;5031528;28;20461;-58
2022/04/14 06:32:56;;;;;;;98.93;53.78;;;;;;;;;;5025603;28;20491;-59
2022/04/14 06:35:22;;;;;;;89.22;51.50;;;;;;;;;;5036396;28;20021;-59
2022/04/14 06:37:48;;;;;;;83.10;48.70;;;;;;;;;;5027306;28;20040;-59
2022/04/14 06:40:14;;;;;;;85.80;51.67;;;;;;;;;;5035278;28;20029;-59
2022/04/14 06:42:40;;;;;;;90.65;51.50;;;;;;;;;;5031142;28;20075;-59
2022/04/14 06:45:06;;;;;;;83.65;50.00;;;;;;;;;;5030007;28;20507;-59
2022/04/14 06:47:33;;;;;;;80.20;48.85;;;;;;;;;;5033377;28;20021;-59
2022/04/14 06:49:59;;;;;;;77.88;47.97;;;;;;;;;;5025574;28;20072;-59
2022/04/14 06:52:25;;;;;;;81.03;48.72;;;;;;;;;;5025345;28;20021;-59
2022/04/14 06:54:51;;;;;;;80.72;48.65;;;;;;;;;;5020422;28;20029;-59
2022/04/14 06:57:18;;;;;;;82.80;47.45;;;;;;;;;;5027374;28;20110;-59
2022/04/14 06:59:44;;;;;;;73.15;44.92;;;;;;;;;;5028886;28;20572;-59
2022/04/14 07:02:10;;;;;;;77.47;45.85;;;;;;;;;;5032601;28;20112;-59
2022/04/14 07:04:36;;;;;;;79.93;44.63;;;;;;;;;;5025808;28;20026;-59
2022/04/14 07:07:03;;;;;;;78.30;45.88;;;;;;;;;;5030174;28;20508;-59
2022/04/14 07:09:32;;;;;;;75.38;43.05;;;;;;;;;;5029739;28;20032;-59
2022/04/14 07:11:59;;;;;;;71.65;41.92;;;;;;;;;;5033382;28;20032;-59
2022/04/14 07:14:26;;;;;;;65.45;39.72;;;;;;;;;;5029644;28;20048;-59
2022/04/14 07:16:52;;;;;;;69.13;39.08;;;;;;;;;;5028211;28;20515;-59
2022/04/14 07:19:18;;;;;;;64.85;38.80;;;;;;;;;;5027395;28;20092;-60
2022/04/14 07:21:44;;;;;;;59.58;36.83;;;;;;;;;;5023882;28;20033;-59
2022/04/14 07:24:10;;;;;;;61.65;37.22;;;;;;;;;;5018722;28;20025;-61
2022/04/14 07:26:37;;;;;;;64.38;37.78;;;;;;;;;;5029111;28;20477;-59
2022/04/14 07:29:03;;;;;;;58.35;34.45;;;;;;;;;;5027443;28;20025;-60
2022/04/14 07:31:33;;;;;;;59.03;36.35;;;;;;;;;;5023367;28;21457;-60
2022/04/14 07:33:59;;;;;;;55.15;33.08;;;;;;;;;;5025121;28;20151;-60
2022/04/14 07:36:26;;;;;;;53.50;32.67;;;;;;;;;;5017280;28;20709;-59
2022/04/14 07:38:52;;;;;;;56.63;34.00;;;;;;;;;;5026082;28;20535;-60
2022/04/14 07:41:18;;;;;;;58.63;32.70;;;;;;;;;;5024349;28;20063;-60
2022/04/14 07:43:44;;;;;;;60.42;33.38;;;;;;;;;;5027107;28;20037;-60
2022/04/14 07:46:10;;;;;;;86.18;51.42;;;;;;;;;;5032394;28;20032;-60
2022/04/14 07:48:36;;;;;;;59.25;34.83;;;;;;;;;;5025778;28;20025;-60
2022/04/14 07:51:02;;;;;;;68.35;37.55;;;;;;;;;;5023755;28;20087;-60
2022/04/14 07:53:29;;;;;;;80.60;44.03;;;;;;;;;;5028821;28;20029;-60
2022/04/14 07:55:55;;;;;;;79.82;43.65;;;;;;;;;;5028412;28;20040;-60
2022/04/14 07:58:20;;;;;;;82.28;45.63;;;;;;;;;;5028752;28;20021;-60
2022/04/14 08:00:47;;;;;;;83.00;42.45;;;;;;;;;;5026596;28;20031;-60
2022/04/14 08:03:13;;;;;;;80.30;42.83;;;;;;;;;;5031762;28;20032;-60
2022/04/14 08:05:41;;;;;;;74.57;40.67;;;;;;;;;;5026634;28;20511;-60
2022/04/14 08:08:08;;;;;;;67.40;38.40;;;;;;;;;;5024201;28;21529;-60
2022/04/14 08:10:34;;;;;;;63.25;37.45;;;;;;;;;;5023646;28;20022;-60
2022/04/14 08:13:00;;;;;;;61.88;38.40;;;;;;;;;;5025224;28;20079;-59
2022/04/14 08:15:27;;;;;;;64.72;38.88;;;;;;;;;;5024619;28;20064;-60
2022/04/14 08:17:53;;;;;;;69.93;41.90;;;;;;;;;;5028356;28;20083;-59
2022/04/14 08:20:19;;;;;;;80.13;43.78;;;;;;;;;;5027814;28;20037;-60
2022/04/14 08:22:46;;;;;;;81.50;46.20;;;;;;;;;;5021545;28;20027;-60
2022/04/14 08:25:13;;;;;;;80.00;48.10;;;;;;;;;;5026734;28;20026;-59
2022/04/14 08:27:39;;;;;;;78.25;45.58;;;;;;;;;;5025602;28;20084;-60
2022/04/14 08:30:05;;;;;;;70.15;44.78;;;;;;;;;;5026868;28;20021;-60
2022/04/14 08:32:31;;;;;;;72.00;43.45;;;;;;;;;;5019955;28;20030;-60
2022/04/14 08:34:57;;;;;;;73.25;44.13;;;;;;;;;;5028758;28;20041;-60
2022/04/14 08:37:23;;;;;;;74.47;43.20;;;;;;;;;;5028567;28;20038;-60
2022/04/14 08:39:49;;;;;;;70.78;42.30;;;;;;;;;;5025145;28;20087;-61
2022/04/14 08:42:20;;;;;;;73.13;43.92;;;;;;;;;;5026861;28;20030;-60
2022/04/14 08:44:49;;;;;;;73.93;44.17;;;;;;;;;;5028784;28;20041;-60
2022/04/14 08:47:16;;;;;;;70.38;43.90;;;;;;;;;;5027843;28;20030;-60
2022/04/14 08:49:44;;;;;;;78.55;48.35;;;;;;;;;;5029432;28;20025;-60
2022/04/14 08:52:14;;;;;;;69.95;46.75;;;;;;;;;;5026240;28;20075;-60
2022/04/14 08:54:40;;;;;;;71.18;46.25;;;;;;;;;;5029077;28;20024;-60
2022/04/14 08:57:09;;;;;;;71.10;47.55;;;;;;;;;;5024022;28;20040;-60
2022/04/14 08:59:35;;;;;;;72.07;47.13;;;;;;;;;;5029892;28;20426;-60
2022/04/14 09:02:04;;;;;;;71.93;47.03;;;;;;;;;;5023351;28;20030;-60
2022/04/14 09:04:31;;;;;;;69.78;46.00;;;;;;;;;;5025609;28;20574;-60
2022/04/14 09:06:57;;;;;;;72.75;46.78;;;;;;;;;;5019711;28;20103;-60
2022/04/14 09:09:24;;;;;;;74.47;47.50;;;;;;;;;;5025384;28;20025;-61
2022/04/14 09:11:50;;;;;;;72.15;47.60;;;;;;;;;;5026163;28;20040;-60
2022/04/14 09:14:16;;;;;;;74.35;48.10;;;;;;;;;;5027288;28;20028;-60
2022/04/14 09:16:42;;;;;;;69.30;47.35;;;;;;;;;;5023614;28;20108;-60
2022/04/14 09:19:08;;;;;;;74.10;48.25;;;;;;;;;;5024871;28;20676;-60
2022/04/14 09:21:34;;;;;;;75.40;50.05;;;;;;;;;;5021921;28;20032;-60
2022/04/14 09:24:00;;;;;;;74.32;49.78;;;;;;;;;;5024426;28;20396;-60
2022/04/14 09:26:26;;;;;;;69.22;47.28;;;;;;;;;;5021824;28;20030;-60
2022/04/14 09:29:03;;;;;;;55.03;41.67;;;;;;;;;;5023988;28;20029;-61
2022/04/14 09:31:29;;;;;;;55.05;41.50;;;;;;;;;;5022340;28;20053;-61
2022/04/14 09:33:55;;;;;;;61.10;43.28;;;;;;;;;;5028848;28;20032;-61
2022/04/14 09:36:23;;;;;;;59.70;41.10;;;;;;;;;;5023498;28;20026;-60
2022/04/14 09:39:00;;;;;;;57.30;41.38;;;;;;;;;;5026640;28;20018;-60
2022/04/14 09:41:42;;;;;;;50.58;37.60;;;;;;;;;;5023535;28;20041;-60
2022/04/14 09:44:09;;;;;;;45.45;32.13;;;;;;;;;;5026339;28;20029;-61
2022/04/14 09:46:36;;;;;;;46.60;34.50;;;;;;;;;;5021152;28;20369;-60
2022/04/14 09:49:06;;;;;;;43.67;31.80;;;;;;;;;;5023401;28;20038;-61
2022/04/14 09:51:33;;;;;;;39.05;29.05;;;;;;;;;;5022974;28;20144;-60
2022/04/14 09:54:03;;;;;;;43.92;32.08;;;;;;;;;;5025703;28;20022;-59
2022/04/14 09:56:40;;;;;;;42.30;32.83;;;;;;;;;;5025187;28;20713;-60
2022/04/14 09:59:09;;;;;;;48.13;34.65;;;;;;;;;;5018913;28;20108;-60
2022/04/14 10:01:36;;;;;;;45.70;32.83;;;;;;;;;;5021764;28;20105;-60
2022/04/14 10:04:03;;;;;;;44.50;30.13;;;;;;;;;;5021785;28;20025;-61
2022/04/14 10:06:29;;;;;;;44.05;33.42;;;;;;;;;;5025075;28;20846;-61
2022/04/14 10:08:55;;;;;;;49.58;36.45;;;;;;;;;;5030923;28;20134;-60
2022/04/14 10:11:25;;;;;;;42.35;32.78;;;;;;;;;;5022869;28;20168;-61
2022/04/14 10:13:51;;;;;;;41.63;31.10;;;;;;;;;;5024362;28;20037;-61
2022/04/14 10:16:21;;;;;;;43.47;32.88;;;;;;;;;;5024605;28;20025;-61
2022/04/14 10:18:47;;;;;;;40.63;31.85;;;;;;;;;;5020386;28;20112;-60
2022/04/14 10:21:14;;;;;;;41.67;30.83;;;;;;;;;;5023005;28;20044;-61
2022/04/14 10:23:41;;;;;;;44.83;32.88;;;;;;;;;;5024483;28;20025;-61
2022/04/14 10:26:08;;;;;;;39.03;29.77;;;;;;;;;;5021520;28;20455;-60
2022/04/14 10:28:35;;;;;;;43.78;33.85;;;;;;;;;;5023641;28;20022;-60
2022/04/14 10:31:01;;;;;;;37.97;31.65;;;;;;;;;;5016403;28;20053;-61
2022/04/14 10:33:28;;;;;;;34.60;27.10;;;;;;;;;;5015677;28;20021;-60
2022/04/14 10:35:55;;;;;;;31.35;24.85;;;;;;;;;;5025579;28;20483;-60
2022/04/14 10:38:25;;;;;;;34.50;25.33;;;;;;;;;;5032918;28;20037;-61
2022/04/14 10:40:54;;;;;;;30.90;24.55;;;;;;;;;;5029190;28;20060;-61
2022/04/14 10:43:21;;;;;;;35.70;26.80;;;;;;;;;;5033058;28;20582;-62
2022/04/14 10:45:48;;;;;;;38.20;30.08;;;;;;;;;;5027181;28;20142;-61
2022/04/14 10:48:27;;;;;;;38.55;28.98;;;;;;;;;;5021080;28;20032;-62
2022/04/14 10:51:12;;;;;;;31.83;25.30;;;;;;;;;;5027382;28;20753;-61
2022/04/14 10:53:48;;;;;;;34.80;27.50;;;;;;;;;;5029680;28;20121;-62
2022/04/14 10:56:34;;;;;;;32.47;26.85;;;;;;;;;;5026209;28;20419;-61
2022/04/14 10:59:11;;;;;;;32.50;25.45;;;;;;;;;;5024602;28;20022;-62
2022/04/14 11:01:52;;;;;;;33.70;25.88;;;;;;;;;;5020433;28;20184;-62
2022/04/14 11:04:24;;;;;;;32.33;25.98;;;;;;;;;;5018239;28;20112;-62
2022/04/14 11:06:54;;;;;;;29.00;24.30;;;;;;;;;;5024881;28;20131;-62
2022/04/14 11:09:41;;;;;;;31.58;24.98;;;;;;;;;;5022861;28;20025;-62
2022/04/14 11:12:11;;;;;;;30.77;24.60;;;;;;;;;;5024282;28;21328;-62
2022/04/14 11:14:44;;;;;;;27.75;22.38;;;;;;;;;;5021779;28;20087;-62
2022/04/14 11:17:25;;;;;;;25.98;18.15;;;;;;;;;;5027169;28;20039;-62
2022/04/14 11:19:52;;;;;;;21.50;15.80;;;;;;;;;;5025104;28;20040;-62
2022/04/14 11:22:17;;;;;;;20.50;15.20;;;;;;;;;;5024852;28;20025;-62
2022/04/14 11:24:44;;;;;;;23.15;15.93;;;;;;;;;;5027695;28;20030;-62
2022/04/14 11:27:13;;;;;;;19.23;15.98;;;;;;;;;;5020635;28;20030;-61
2022/04/14 11:29:43;;;;;;;18.15;15.77;;;;;;;;;;5025459;28;20025;-61
2022/04/14 11:32:09;;;;;;;19.27;14.70;;;;;;;;;;5024965;28;20529;-61
2022/04/14 11:34:36;;;;;;;19.38;13.93;;;;;;;;;;5022258;28;20036;-61
2022/04/14 11:37:02;;;;;;;19.35;14.52;;;;;;;;;;5024988;28;20093;-62
2022/04/14 11:39:29;;;;;;;18.13;12.43;;;;;;;;;;5022925;28;20036;-62
2022/04/14 11:42:10;;;;;;;14.40;11.68;;;;;;;;;;5020879;28;20120;-62
2022/04/14 11:44:36;;;;;;;14.20;11.15;;;;;;;;;;5025212;28;20037;-62
2022/04/14 11:47:03;;;;;;;14.30;11.30;;;;;;;;;;5027011;28;20617;-61
2022/04/14 11:49:30;;;;;;;12.68;11.13;;;;;;;;;;5026797;28;20527;-62
2022/04/14 11:52:00;;;;;;;15.30;10.88;;;;;;;;;;5024092;28;20033;-62
2022/04/14 11:54:29;;;;;;;13.02;11.05;;;;;;;;;;5026142;28;20487;-62
2022/04/14 11:56:56;;;;;;;12.45;10.65;;;;;;;;;;5028173;28;20017;-62
2022/04/14 11:59:32;;;;;;;15.00;10.98;;;;;;;;;;5027852;28;20049;-62
2022/04/14 12:02:02;;;;;;;13.52;11.35;;;;;;;;;;5027362;28;20026;-62
2022/04/14 12:04:28;;;;;;;17.40;12.93;;;;;;;;;;5034254;28;20053;-61
2022/04/14 12:06:55;;;;;;;16.40;12.60;;;;;;;;;;5023527;28;20074;-62
2022/04/14 12:09:22;;;;;;;14.88;12.57;;;;;;;;;;5028596;28;20396;-62
2022/04/14 12:11:48;;;;;;;19.73;14.70;;;;;;;;;;5025667;28;20481;-62
2022/04/14 12:14:16;;;;;;;16.75;13.93;;;;;;;;;;5025792;28;20036;-62
2022/04/14 12:16:52;;;;;;;17.48;15.57;;;;;;;;;;5027220;28;20052;-61
2022/04/14 12:19:18;;;;;;;18.30;15.05;;;;;;;;;;5026599;28;20025;-65
2022/04/14 12:21:58;;;;;;;18.85;16.58;;;;;;;;;;5026384;28;20030;-69
2022/04/14 12:24:24;;;;;;;21.33;15.80;;;;;;;;;;5030823;28;20598;-70
2022/04/14 12:26:50;;;;;;;17.42;15.52;;;;;;;;;;5023472;28;20033;-70
2022/04/14 12:29:19;;;;;;;18.83;15.25;;;;;;;;;;5027397;28;20036;-70
2022/04/14 12:31:45;;;;;;;20.30;15.55;;;;;;;;;;5022864;28;20025;-72
2022/04/14 12:34:11;;;;;;;18.00;15.95;;;;;;;;;;5025790;28;20037;-70
2022/04/14 12:36:38;;;;;;;19.60;17.58;;;;;;;;;;5024747;28;20041;-69
2022/04/14 12:39:18;;;;;;;19.65;16.85;;;;;;;;;;5024526;28;20354;-67
2022/04/14 12:41:44;;;;;;;18.77;15.68;;;;;;;;;;5025741;28;20056;-70
2022/04/14 12:44:15;;;;;;;15.30;13.77;;;;;;;;;;5029058;28;20020;-70
2022/04/14 12:46:41;;;;;;;18.10;14.20;;;;;;;;;;5026535;28;20033;-71
2022/04/14 12:49:08;;;;;;;16.88;13.50;;;;;;;;;;5025800;28;20072;-66
2022/04/14 12:51:39;;;;;;;15.20;12.65;;;;;;;;;;5029920;28;20480;-68
2022/04/14 12:54:06;;;;;;;14.13;11.55;;;;;;;;;;5029288;28;20043;-68
2022/04/14 12:56:36;;;;;;;16.23;12.50;;;;;;;;;;5027651;28;20025;-66
2022/04/14 12:59:10;;;;;;;14.27;11.43;;;;;;;;;;5022484;28;20369;-67
2022/04/14 13:01:47;;;;;;;13.20;10.77;;;;;;;;;;5023884;28;20041;-64
2022/04/14 13:04:13;;;;;;;16.70;10.13;;;;;;;;;;5025670;28;20040;-64
2022/04/14 13:06:40;;;;;;;10.88;7.40;;;;;;;;;;5026931;28;20048;-64
2022/04/14 13:09:16;;;;;;;11.60;7.30;;;;;;;;;;5026325;28;20017;-67
2022/04/14 13:11:43;;;;;;;9.18;7.15;;;;;;;;;;5021222;28;20075;-70
2022/04/14 13:14:35;;;;;;;12.90;8.70;;;;;;;;;;5025966;28;20017;-64
2022/04/14 13:17:02;;;;;;;10.23;7.32;;;;;;;;;;5026193;28;20113;-68
2022/04/14 13:19:28;;;;;;;10.40;6.90;;;;;;;;;;5020637;28;20515;-66
2022/04/14 13:21:55;;;;;;;10.10;6.70;;;;;;;;;;5025970;28;20103;-67
2022/04/14 13:24:24;;;;;;;8.45;6.25;;;;;;;;;;5024572;28;20476;-67
2022/04/14 13:26:51;;;;;;;8.93;5.43;;;;;;;;;;5026480;28;20026;-71
2022/04/14 13:29:17;;;;;;;9.10;5.60;;;;;;;;;;5027552;28;20033;-68
2022/04/14 13:31:43;;;;;;;9.75;6.30;;;;;;;;;;5026393;28;20029;-72
2022/04/14 13:34:09;;;;;;;11.52;6.47;;;;;;;;;;5023666;28;20026;-62
2022/04/14 13:36:36;;;;;;;9.75;6.70;;;;;;;;;;5025634;28;20509;-67
2022/04/14 13:39:02;;;;;;;9.65;6.47;;;;;;;;;;5025555;28;20077;-65
2022/04/14 13:41:30;;;;;;;9.05;6.35;;;;;;;;;;5023000;28;20025;-64
2022/04/14 13:43:56;;;;;;;13.25;6.60;;;;;;;;;;5020677;28;20025;-62
2022/04/14 13:46:22;;;;;;;9.10;5.85;;;;;;;;;;5021232;28;20026;-63
2022/04/14 13:48:51;;;;;;;10.60;6.43;;;;;;;;;;5023848;28;20524;-62
2022/04/14 13:51:18;;;;;;;12.75;6.75;;;;;;;;;;5023861;28;20039;-64
2022/04/14 13:53:44;;;;;;;9.75;5.60;;;;;;;;;;5022911;28;20116;-62
2022/04/14 13:56:10;;;;;;;9.70;5.38;;;;;;;;;;5023194;28;20022;-62
2022/04/14 13:58:36;;;;;;;7.80;5.40;;;;;;;;;;5023337;28;20410;-64
2022/04/14 14:01:03;;;;;;;7.95;5.30;;;;;;;;;;5022082;28;20048;-62
2022/04/14 14:03:32;;;;;;;8.60;4.97;;;;;;;;;;5022029;28;20418;-62
2022/04/14 14:05:59;;;;;;;7.90;5.20;;;;;;;;;;5022323;28;20052;-64
2022/04/14 14:08:25;;;;;;;8.18;5.57;;;;;;;;;;5012842;28;20097;-64
2022/04/14 14:10:51;;;;;;;11.85;5.43;;;;;;;;;;5020673;28;20374;-65
2022/04/14 14:13:17;;;;;;;10.10;5.00;;;;;;;;;;5023775;28;20037;-64
2022/04/14 14:15:43;;;;;;;6.50;4.45;;;;;;;;;;5019246;28;20044;-64
2022/04/14 14:18:09;;;;;;;6.00;4.82;;;;;;;;;;5023982;28;20570;-65
2022/04/14 14:20:35;;;;;;;7.18;4.60;;;;;;;;;;5022053;28;20472;-65